Northeast, Tennessee
Current Conditions -  °F | °C
As of 2:53 AM on Thursday 23 Oct 2014 (Local Time) from KBNA Reporting Station
Clear Clear  
Wind Chill: 39°   Ceiling: Unl
Heat Index: 43°   Visibility: 10mi
Dew Point: 40°   Wind: 6mph
Humidity: 89%   Direction: 30°NNE
Pressure: 30.21"   Gusts: NA
Location:  36.2387°N, 86.78°W
Report Text: KBNA 230753Z 03005KT 10SM CLR 06/04 A3021 RMK AO2 SLP228 T00610044
Loading
Personal Weather Stations






























Interactive Weather Map
Tropical Storm Tracking
New forecast layout! Learn more

10-Day Weather Forecast

Advertisements
Track Severe Weather on mobile